Terminal Aerodrome Forecast
Issued by NWS Portland, OR

Home | Current Version | Previous Version | Text Only | Print | Product List | Glossary On
Versions: 1 2 3 4 5 6 7 8 9 10 11 12 13 14 15 16 17 18 19 20 21 22 23 24 25 26 27 28 29 30 31 32 33 34 35 36 37 38
000
FTUS46 KPQR 261122 CCA
TAFEUG
TAF COR
KEUG 261122Z 2612/2712 VRB03KT 1/2SM FG BKN002 OVC004
      TEMPO 2613/2617 3SM BR FEW002 SCT004 BKN040
     FM261700 17005KT 6SM BR SCT004 BKN008 BKN150
     FM261800 17006KT P6SM BKN012 BKN150
     FM262000 17007KT P6SM SCT080 BKN150
     FM271100 16011KT P6SM -RA BKN040 OVC080=

USA.gov is the U.S. government's official web portal to all federal, state and local government web resources and services.